sensor_id;sensor_type;location;lat;lon;timestamp;pressure;altitude;pressure_sealevel;temperature;humidity
37824;BME280;23667;43.246;26.576;2022-12-16T00:00:15;99495.72;;;1.31;100.00
37824;BME280;23667;43.246;26.576;2022-12-16T00:02:41;99494.09;;;1.43;100.00
37824;BME280;23667;43.246;26.576;2022-12-16T00:05:07;99486.44;;;1.52;100.00
37824;BME280;23667;43.246;26.576;2022-12-16T00:07:33;99485.53;;;1.45;100.00
37824;BME280;23667;43.246;26.576;2022-12-16T00:09:58;99487.38;;;1.63;100.00
37824;BME280;23667;43.246;26.576;2022-12-16T00:12:24;99484.84;;;1.72;100.00
37824;BME280;23667;43.246;26.576;2022-12-16T00:14:50;99487.38;;;1.65;100.00
37824;BME280;23667;43.246;26.576;2022-12-16T00:17:16;99490.00;;;1.75;100.00
37824;BME280;23667;43.246;26.576;2022-12-16T00:19:41;99490.91;;;1.85;100.00
37824;BME280;23667;43.246;26.576;2022-12-16T00:22:06;99489.13;;;1.70;100.00
37824;BME280;23667;43.246;26.576;2022-12-16T00:24:32;99486.56;;;1.69;100.00
37824;BME280;23667;43.246;26.576;2022-12-16T00:26:57;99492.53;;;1.71;100.00
37824;BME280;23667;43.246;26.576;2022-12-16T00:29:23;99483.06;;;1.57;100.00
37824;BME280;23667;43.246;26.576;2022-12-16T00:31:48;99488.09;;;1.47;100.00
37824;BME280;23667;43.246;26.576;2022-12-16T00:34:15;99483.13;;;1.74;100.00
37824;BME280;23667;43.246;26.576;2022-12-16T00:36:41;99488.34;;;1.85;100.00
37824;BME280;23667;43.246;26.576;2022-12-16T00:39:09;99484.06;;;1.87;100.00
37824;BME280;23667;43.246;26.576;2022-12-16T00:41:35;99488.34;;;1.88;100.00
37824;BME280;23667;43.246;26.576;2022-12-16T00:44:01;99479.75;;;1.81;100.00
37824;BME280;23667;43.246;26.576;2022-12-16T00:46:26;99478.78;;;1.63;100.00
37824;BME280;23667;43.246;26.576;2022-12-16T00:48:52;99477.94;;;1.64;100.00
37824;BME280;23667;43.246;26.576;2022-12-16T00:51:17;99473.59;;;1.53;100.00
37824;BME280;23667;43.246;26.576;2022-12-16T00:53:43;99469.34;;;1.58;100.00
37824;BME280;23667;43.246;26.576;2022-12-16T00:56:10;99469.31;;;1.54;100.00
37824;BME280;23667;43.246;26.576;2022-12-16T00:58:39;99478.66;;;1.41;100.00
37824;BME280;23667;43.246;26.576;2022-12-16T01:01:06;99476.88;;;1.32;100.00
37824;BME280;23667;43.246;26.576;2022-12-16T01:03:32;99477.84;;;1.48;100.00
37824;BME280;23667;43.246;26.576;2022-12-16T01:05:58;99476.88;;;1.35;100.00
37824;BME280;23667;43.246;26.576;2022-12-16T01:08:24;99468.31;;;1.32;100.00
37824;BME280;23667;43.246;26.576;2022-12-16T01:10:51;99475.16;;;1.28;100.00
37824;BME280;23667;43.246;26.576;2022-12-16T01:13:17;99466.56;;;1.29;100.00
37824;BME280;23667;43.246;26.576;2022-12-16T01:15:42;99470.81;;;1.23;100.00
37824;BME280;23667;43.246;26.576;2022-12-16T01:18:08;99454.44;;;1.08;100.00
37824;BME280;23667;43.246;26.576;2022-12-16T01:20:33;99451.94;;;1.18;100.00
37824;BME280;23667;43.246;26.576;2022-12-16T01:22:59;99449.47;;;1.33;100.00
37824;BME280;23667;43.246;26.576;2022-12-16T01:25:25;99444.22;;;1.18;100.00
37824;BME280;23667;43.246;26.576;2022-12-16T01:27:50;99442.47;;;1.07;100.00
37824;BME280;23667;43.246;26.576;2022-12-16T01:30:16;99445.84;;;1.05;100.00
37824;BME280;23667;43.246;26.576;2022-12-16T01:32:41;99450.13;;;1.06;100.00
37824;BME280;23667;43.246;26.576;2022-12-16T01:35:07;99448.41;;;1.02;100.00
37824;BME280;23667;43.246;26.576;2022-12-16T01:37:33;99450.06;;;0.97;100.00
37824;BME280;23667;43.246;26.576;2022-12-16T01:39:58;99444.03;;;0.90;100.00
37824;BME280;23667;43.246;26.576;2022-12-16T01:42:24;99433.00;;;1.03;100.00
37824;BME280;23667;43.246;26.576;2022-12-16T01:44:53;99423.69;;;1.18;100.00
37824;BME280;23667;43.246;26.576;2022-12-16T01:47:27;99427.13;;;1.21;100.00
37824;BME280;23667;43.246;26.576;2022-12-16T01:50:09;99422.00;;;1.23;100.00
37824;BME280;23667;43.246;26.576;2022-12-16T01:52:42;99418.63;;;1.33;100.00
37824;BME280;23667;43.246;26.576;2022-12-16T01:55:33;99424.50;;;1.10;100.00
37824;BME280;23667;43.246;26.576;2022-12-16T01:58:08;99427.81;;;0.97;100.00
37824;BME280;23667;43.246;26.576;2022-12-16T02:00:36;99427.03;;;1.09;100.00
37824;BME280;23667;43.246;26.576;2022-12-16T02:03:02;99425.31;;;1.09;100.00
37824;BME280;23667;43.246;26.576;2022-12-16T02:05:28;99427.06;;;1.10;100.00
37824;BME280;23667;43.246;26.576;2022-12-16T02:18:43;99465.66;;;1.21;100.00
37824;BME280;23667;43.246;26.576;2022-12-16T02:24:51;99458.03;;;1.30;100.00
37824;BME280;23667;43.246;26.576;2022-12-16T02:32:33;99458.22;;;1.63;100.00
37824;BME280;23667;43.246;26.576;2022-12-16T02:40:59;99421.25;;;1.41;100.00
37824;BME280;23667;43.246;26.576;2022-12-16T02:46:16;99409.78;;;0.86;100.00
37824;BME280;23667;43.246;26.576;2022-12-16T02:48:43;99412.38;;;0.89;100.00
37824;BME280;23667;43.246;26.576;2022-12-16T02:51:09;99406.34;;;0.86;100.00
37824;BME280;23667;43.246;26.576;2022-12-16T02:53:36;99399.41;;;0.74;100.00
37824;BME280;23667;43.246;26.576;2022-12-16T03:04:07;99380.84;;;1.12;100.00
37824;BME280;23667;43.246;26.576;2022-12-16T03:06:35;99382.56;;;1.14;100.00
37824;BME280;23667;43.246;26.576;2022-12-16T03:09:06;99384.31;;;1.19;100.00
37824;BME280;23667;43.246;26.576;2022-12-16T03:11:32;99380.03;;;1.21;100.00
37824;BME280;23667;43.246;26.576;2022-12-16T03:13:59;99372.31;;;1.18;100.00
37824;BME280;23667;43.246;26.576;2022-12-16T03:16:30;99374.03;;;1.17;100.00
37824;BME280;23667;43.246;26.576;2022-12-16T03:19:06;99383.56;;;1.33;100.00
37824;BME280;23667;43.246;26.576;2022-12-16T03:21:38;99381.00;;;1.38;100.00
37824;BME280;23667;43.246;26.576;2022-12-16T03:24:08;99387.00;;;1.37;100.00
37824;BME280;23667;43.246;26.576;2022-12-16T03:29:07;99392.19;;;1.46;100.00
37824;BME280;23667;43.246;26.576;2022-12-16T03:31:37;99392.22;;;1.52;100.00
37824;BME280;23667;43.246;26.576;2022-12-16T03:34:14;99383.66;;;1.55;100.00
37824;BME280;23667;43.246;26.576;2022-12-16T03:36:44;99385.34;;;1.56;100.00
37824;BME280;23667;43.246;26.576;2022-12-16T03:39:13;99381.03;;;1.44;100.00
37824;BME280;23667;43.246;26.576;2022-12-16T03:41:40;99386.22;;;1.59;100.00
37824;BME280;23667;43.246;26.576;2022-12-16T03:44:08;99375.06;;;1.53;100.00
37824;BME280;23667;43.246;26.576;2022-12-16T03:46:33;99388.00;;;1.71;100.00
37824;BME280;23667;43.246;26.576;2022-12-16T03:48:59;99376.97;;;2.04;100.00
37824;BME280;23667;43.246;26.576;2022-12-16T03:51:24;99383.84;;;2.09;100.00
37824;BME280;23667;43.246;26.576;2022-12-16T03:53:50;99383.84;;;2.07;100.00
37824;BME280;23667;43.246;26.576;2022-12-16T03:56:15;99384.72;;;2.20;100.00
37824;BME280;23667;43.246;26.576;2022-12-16T03:58:40;99382.16;;;2.31;100.00
37824;BME280;23667;43.246;26.576;2022-12-16T04:01:08;99383.03;;;2.45;100.00
37824;BME280;23667;43.246;26.576;2022-12-16T04:03:35;99383.03;;;2.42;100.00
37824;BME280;23667;43.246;26.576;2022-12-16T04:06:00;99370.19;;;2.60;100.00
37824;BME280;23667;43.246;26.576;2022-12-16T04:08:26;99359.03;;;2.38;100.00
37824;BME280;23667;43.246;26.576;2022-12-16T04:10:52;99362.47;;;2.59;100.00
37824;BME280;23667;43.246;26.576;2022-12-16T04:13:37;99363.31;;;2.39;100.00
37824;BME280;23667;43.246;26.576;2022-12-16T04:16:21;99366.72;;;2.27;100.00
37824;BME280;23667;43.246;26.576;2022-12-16T04:19:05;99387.34;;;2.44;100.00
37824;BME280;23667;43.246;26.576;2022-12-16T04:21:49;99377.88;;;2.39;100.00
37824;BME280;23667;43.246;26.576;2022-12-16T04:24:34;99365.88;;;2.33;100.00
37824;BME280;23667;43.246;26.576;2022-12-16T04:27:00;99369.31;;;2.44;100.00
37824;BME280;23667;43.246;26.576;2022-12-16T04:29:44;99384.75;;;2.50;100.00
37824;BME280;23667;43.246;26.576;2022-12-16T04:32:28;99389.94;;;2.61;100.00
37824;BME280;23667;43.246;26.576;2022-12-16T04:35:14;99380.47;;;2.46;100.00
37824;BME280;23667;43.246;26.576;2022-12-16T04:37:58;99389.06;;;2.65;100.00
37824;BME280;23667;43.246;26.576;2022-12-16T04:40:42;99380.50;;;2.56;100.00
37824;BME280;23667;43.246;26.576;2022-12-16T04:43:26;99376.19;;;2.74;100.00
37824;BME280;23667;43.246;26.576;2022-12-16T04:46:11;99375.34;;;2.56;100.00
37824;BME280;23667;43.246;26.576;2022-12-16T04:48:55;99380.50;;;2.79;100.00
37824;BME280;23667;43.246;26.576;2022-12-16T04:51:39;99368.44;;;2.87;100.00
37824;BME280;23667;43.246;26.576;2022-12-16T04:54:23;99383.06;;;2.71;100.00
37824;BME280;23667;43.246;26.576;2022-12-16T04:57:07;99388.19;;;2.86;100.00
37824;BME280;23667;43.246;26.576;2022-12-16T04:59:51;99394.19;;;2.87;100.00
37824;BME280;23667;43.246;26.576;2022-12-16T05:02:35;99373.59;;;2.87;100.00
37824;BME280;23667;43.246;26.576;2022-12-16T05:05:19;99367.59;;;2.91;100.00
37824;BME280;23667;43.246;26.576;2022-12-16T05:08:03;99364.19;;;2.81;100.00
37824;BME280;23667;43.246;26.576;2022-12-16T05:10:47;99361.56;;;3.06;100.00
37824;BME280;23667;43.246;26.576;2022-12-16T05:13:31;99362.44;;;3.02;100.00
37824;BME280;23667;43.246;26.576;2022-12-16T05:16:15;99359.00;;;3.12;100.00
37824;BME280;23667;43.246;26.576;2022-12-16T05:18:59;99359.81;;;3.23;100.00
37824;BME280;23667;43.246;26.576;2022-12-16T05:21:43;99356.41;;;3.13;100.00
37824;BME280;23667;43.246;26.576;2022-12-16T05:24:27;99378.69;;;3.28;100.00
37824;BME280;23667;43.246;26.576;2022-12-16T05:27:11;99376.94;;;3.47;100.00
37824;BME280;23667;43.246;26.576;2022-12-16T05:29:55;99373.44;;;3.57;100.00
37824;BME280;23667;43.246;26.576;2022-12-16T05:32:39;99362.22;;;3.75;100.00
37824;BME280;23667;43.246;26.576;2022-12-16T05:35:23;99357.13;;;3.60;100.00
37824;BME280;23667;43.246;26.576;2022-12-16T05:38:07;99364.88;;;3.58;100.00
37824;BME280;23667;43.246;26.576;2022-12-16T05:40:51;99359.69;;;3.63;100.00
37824;BME280;23667;43.246;26.576;2022-12-16T05:43:35;99360.50;;;3.79;100.00
37824;BME280;23667;43.246;26.576;2022-12-16T05:46:19;99358.78;;;3.79;100.00
37824;BME280;23667;43.246;26.576;2022-12-16T05:49:03;99351.81;;;3.97;100.00
37824;BME280;23667;43.246;26.576;2022-12-16T05:51:47;99343.34;;;3.70;100.00
37824;BME280;23667;43.246;26.576;2022-12-16T05:54:31;99341.66;;;3.57;100.00
37824;BME280;23667;43.246;26.576;2022-12-16T05:57:15;99342.41;;;3.83;100.00
37824;BME280;23667;43.246;26.576;2022-12-16T05:59:59;99351.84;;;3.84;100.00
37824;BME280;23667;43.246;26.576;2022-12-16T06:02:43;99359.72;;;3.61;100.00
37824;BME280;23667;43.246;26.576;2022-12-16T06:05:27;99358.66;;;4.01;100.00
37824;BME280;23667;43.246;26.576;2022-12-16T06:08:11;99337.31;;;3.71;100.00
37824;BME280;23667;43.246;26.576;2022-12-16T06:10:55;99351.00;;;3.85;100.00
37824;BME280;23667;43.246;26.576;2022-12-16T06:13:39;99363.91;;;3.81;100.00
37824;BME280;23667;43.246;26.576;2022-12-16T06:16:22;99363.88;;;3.88;100.00
37824;BME280;23667;43.246;26.576;2022-12-16T06:19:06;99364.63;;;4.12;100.00
37824;BME280;23667;43.246;26.576;2022-12-16T06:21:50;99374.84;;;4.26;100.00
37824;BME280;23667;43.246;26.576;2022-12-16T06:24:34;99378.31;;;4.22;100.00
37824;BME280;23667;43.246;26.576;2022-12-16T06:27:18;99386.03;;;4.29;100.00
37824;BME280;23667;43.246;26.576;2022-12-16T06:30:03;99385.97;;;4.39;100.00
37824;BME280;23667;43.246;26.576;2022-12-16T06:32:47;99393.75;;;4.31;100.00
37824;BME280;23667;43.246;26.576;2022-12-16T06:35:31;99402.22;;;4.51;100.00
37824;BME280;23667;43.246;26.576;2022-12-16T06:38:15;99396.09;;;4.66;100.00
37824;BME280;23667;43.246;26.576;2022-12-16T06:40:59;99398.50;;;4.88;100.00
37824;BME280;23667;43.246;26.576;2022-12-16T06:43:43;99389.72;;;5.07;100.00
37824;BME280;23667;43.246;26.576;2022-12-16T06:46:27;99384.38;;;5.25;100.00
37824;BME280;23667;43.246;26.576;2022-12-16T06:49:10;99379.22;;;5.22;100.00
37824;BME280;23667;43.246;26.576;2022-12-16T06:51:54;99374.69;;;5.44;100.00
37824;BME280;23667;43.246;26.576;2022-12-16T06:54:38;99373.06;;;5.36;100.00
37824;BME280;23667;43.246;26.576;2022-12-16T06:57:22;99371.81;;;5.69;100.00
37824;BME280;23667;43.246;26.576;2022-12-16T07:00:07;99370.81;;;5.81;100.00
37824;BME280;23667;43.246;26.576;2022-12-16T07:02:52;99359.78;;;5.68;100.00
37824;BME280;23667;43.246;26.576;2022-12-16T07:05:36;99358.13;;;5.61;100.00
37824;BME280;23667;43.246;26.576;2022-12-16T07:08:20;99365.63;;;5.81;100.00
37824;BME280;23667;43.246;26.576;2022-12-16T07:11:04;99357.75;;;5.90;100.00
37824;BME280;23667;43.246;26.576;2022-12-16T07:13:48;99363.84;;;5.86;100.00
37824;BME280;23667;43.246;26.576;2022-12-16T07:16:31;99363.66;;;6.03;100.00
37824;BME280;23667;43.246;26.576;2022-12-16T07:19:16;99366.34;;;5.95;100.00
37824;BME280;23667;43.246;26.576;2022-12-16T07:21:59;99366.34;;;5.95;100.00
37824;BME280;23667;43.246;26.576;2022-12-16T07:24:43;99354.97;;;6.05;100.00
37824;BME280;23667;43.246;26.576;2022-12-16T07:27:27;99352.88;;;6.32;100.00
37824;BME280;23667;43.246;26.576;2022-12-16T07:30:12;99355.19;;;6.52;100.00
37824;BME280;23667;43.246;26.576;2022-12-16T07:32:55;99344.47;;;6.18;100.00
37824;BME280;23667;43.246;26.576;2022-12-16T07:35:41;99349.50;;;6.27;100.00
37824;BME280;23667;43.246;26.576;2022-12-16T07:38:25;99330.88;;;6.59;100.00
37824;BME280;23667;43.246;26.576;2022-12-16T07:41:12;99347.47;;;6.47;100.00
37824;BME280;23667;43.246;26.576;2022-12-16T07:43:56;99355.88;;;6.61;100.00
37824;BME280;23667;43.246;26.576;2022-12-16T07:46:40;99351.53;;;6.62;100.00
37824;BME280;23667;43.246;26.576;2022-12-16T07:49:24;99352.97;;;6.80;100.00
37824;BME280;23667;43.246;26.576;2022-12-16T07:52:08;99346.72;;;6.93;100.00
37824;BME280;23667;43.246;26.576;2022-12-16T07:54:52;99352.75;;;6.94;100.00
37824;BME280;23667;43.246;26.576;2022-12-16T07:57:36;99368.06;;;7.07;100.00
37824;BME280;23667;43.246;26.576;2022-12-16T08:00:20;99378.56;;;7.48;100.00
37824;BME280;23667;43.246;26.576;2022-12-16T08:03:04;99381.63;;;7.68;100.00
37824;BME280;23667;43.246;26.576;2022-12-16T08:05:48;99388.63;;;7.65;100.00
37824;BME280;23667;43.246;26.576;2022-12-16T08:08:32;99373.56;;;7.81;100.00
37824;BME280;23667;43.246;26.576;2022-12-16T08:11:16;99385.47;;;7.47;100.00
37824;BME280;23667;43.246;26.576;2022-12-16T08:14:00;99402.59;;;7.11;100.00
37824;BME280;23667;43.246;26.576;2022-12-16T08:16:44;99379.88;;;7.24;100.00
37824;BME280;23667;43.246;26.576;2022-12-16T08:19:28;99402.03;;;7.42;100.00
37824;BME280;23667;43.246;26.576;2022-12-16T08:22:12;99388.31;;;7.80;100.00
37824;BME280;23667;43.246;26.576;2022-12-16T08:24:56;99380.44;;;7.83;100.00
37824;BME280;23667;43.246;26.576;2022-12-16T08:27:39;99381.09;;;8.33;100.00
37824;BME280;23667;43.246;26.576;2022-12-16T08:30:23;99374.56;;;8.56;100.00
37824;BME280;23667;43.246;26.576;2022-12-16T08:33:08;99371.91;;;8.93;100.00
37824;BME280;23667;43.246;26.576;2022-12-16T08:35:52;99357.97;;;9.30;100.00
37824;BME280;23667;43.246;26.576;2022-12-16T08:38:36;99360.59;;;9.28;100.00
37824;BME280;23667;43.246;26.576;2022-12-16T08:41:20;99354.81;;;9.50;100.00
37824;BME280;23667;43.246;26.576;2022-12-16T08:44:04;99349.00;;;9.40;100.00
37824;BME280;23667;43.246;26.576;2022-12-16T08:46:48;99327.25;;;9.74;100.00
37824;BME280;23667;43.246;26.576;2022-12-16T08:49:32;99333.47;;;9.98;100.00
37824;BME280;23667;43.246;26.576;2022-12-16T08:52:16;99327.28;;;9.72;100.00
37824;BME280;23667;43.246;26.576;2022-12-16T08:55:00;99337.38;;;9.83;100.00
37824;BME280;23667;43.246;26.576;2022-12-16T08:57:54;99335.06;;;9.43;100.00
37824;BME280;23667;43.246;26.576;2022-12-16T09:00:39;99327.78;;;8.90;100.00
37824;BME280;23667;43.246;26.576;2022-12-16T09:03:23;99324.81;;;9.05;100.00
37824;BME280;23667;43.246;26.576;2022-12-16T09:06:06;99335.31;;;9.33;100.00
37824;BME280;23667;43.246;26.576;2022-12-16T09:08:50;99338.09;;;9.59;100.00
37824;BME280;23667;43.246;26.576;2022-12-16T09:11:34;99327.19;;;9.75;100.00
37824;BME280;23667;43.246;26.576;2022-12-16T09:14:18;99320.13;;;10.09;100.00
37824;BME280;23667;43.246;26.576;2022-12-16T09:17:02;99315.03;;;10.60;100.00
37824;BME280;23667;43.246;26.576;2022-12-16T09:19:46;99299.53;;;11.07;100.00
37824;BME280;23667;43.246;26.576;2022-12-16T09:22:30;99291.78;;;12.00;100.00
37824;BME280;23667;43.246;26.576;2022-12-16T09:25:14;99270.91;;;12.85;100.00
37824;BME280;23667;43.246;26.576;2022-12-16T09:27:58;99263.84;;;13.65;100.00
37824;BME280;23667;43.246;26.576;2022-12-16T09:30:42;99261.28;;;15.41;100.00
37824;BME280;23667;43.246;26.576;2022-12-16T09:33:26;99237.34;;;16.71;100.00
37824;BME280;23667;43.246;26.576;2022-12-16T09:36:10;99237.16;;;16.74;100.00
37824;BME280;23667;43.246;26.576;2022-12-16T09:38:54;99235.09;;;16.95;100.00
37824;BME280;23667;43.246;26.576;2022-12-16T09:41:42;99235.97;;;18.21;100.00
37824;BME280;23667;43.246;26.576;2022-12-16T09:44:36;99220.50;;;18.82;100.00
37824;BME280;23667;43.246;26.576;2022-12-16T09:50:20;99223.53;;;17.40;100.00
37824;BME280;23667;43.246;26.576;2022-12-16T09:53:10;99234.97;;;17.54;100.00
37824;BME280;23667;43.246;26.576;2022-12-16T09:55:55;99220.03;;;17.54;100.00
37824;BME280;23667;43.246;26.576;2022-12-16T09:58:46;99222.16;;;16.76;100.00
37824;BME280;23667;43.246;26.576;2022-12-16T10:01:35;99224.53;;;17.09;100.00
37824;BME280;23667;43.246;26.576;2022-12-16T10:04:20;99226.31;;;16.80;100.00
37824;BME280;23667;43.246;26.576;2022-12-16T10:07:07;99228.56;;;16.26;100.00
37824;BME280;23667;43.246;26.576;2022-12-16T10:22:53;99193.09;;;17.78;100.00
37824;BME280;23667;43.246;26.576;2022-12-16T10:25:38;99202.38;;;18.50;100.00
37824;BME280;23667;43.246;26.576;2022-12-16T10:31:14;99228.22;;;18.45;100.00
37824;BME280;23667;43.246;26.576;2022-12-16T10:33:59;99208.94;;;17.06;100.00
37824;BME280;23667;43.246;26.576;2022-12-16T10:36:44;99198.41;;;18.96;100.00
37824;BME280;23667;43.246;26.576;2022-12-16T10:39:37;99196.56;;;20.08;100.00
37824;BME280;23667;43.246;26.576;2022-12-16T10:42:30;99196.97;;;20.74;100.00
37824;BME280;23667;43.246;26.576;2022-12-16T10:45:22;99186.75;;;20.92;100.00
37824;BME280;23667;43.246;26.576;2022-12-16T10:48:09;99182.88;;;19.66;100.00
37824;BME280;23667;43.246;26.576;2022-12-16T10:50:53;99179.41;;;18.25;100.00
37824;BME280;23667;43.246;26.576;2022-12-16T10:53:37;99179.09;;;17.20;100.00
37824;BME280;23667;43.246;26.576;2022-12-16T10:56:54;99185.28;;;16.01;100.00
37824;BME280;23667;43.246;26.576;2022-12-16T10:59:40;99176.50;;;15.21;100.00
37824;BME280;23667;43.246;26.576;2022-12-16T11:02:26;99174.56;;;15.25;100.00
37824;BME280;23667;43.246;26.576;2022-12-16T11:05:40;99172.59;;;14.97;100.00
37824;BME280;23667;43.246;26.576;2022-12-16T11:08:29;99176.00;;;14.82;100.00
37824;BME280;23667;43.246;26.576;2022-12-16T11:11:33;99171.41;;;14.52;100.00
37824;BME280;23667;43.246;26.576;2022-12-16T11:20:20;99150.16;;;14.39;100.00
37824;BME280;23667;43.246;26.576;2022-12-16T11:23:21;99150.09;;;14.41;100.00
37824;BME280;23667;43.246;26.576;2022-12-16T11:26:07;99161.91;;;14.49;100.00
37824;BME280;23667;43.246;26.576;2022-12-16T11:29:14;99160.13;;;14.50;100.00
37824;BME280;23667;43.246;26.576;2022-12-16T11:32:21;99152.88;;;14.38;100.00
37824;BME280;23667;43.246;26.576;2022-12-16T11:35:13;99147.63;;;14.38;100.00
37824;BME280;23667;43.246;26.576;2022-12-16T11:37:59;99151.09;;;14.38;100.00
37824;BME280;23667;43.246;26.576;2022-12-16T11:40:44;99145.44;;;14.46;100.00
37824;BME280;23667;43.246;26.576;2022-12-16T11:43:28;99151.81;;;14.59;100.00
37824;BME280;23667;43.246;26.576;2022-12-16T11:46:26;99156.94;;;14.78;100.00
37824;BME280;23667;43.246;26.576;2022-12-16T11:49:30;99154.44;;;14.92;100.00
37824;BME280;23667;43.246;26.576;2022-12-16T11:52:19;99149.53;;;15.02;100.00
37824;BME280;23667;43.246;26.576;2022-12-16T11:55:12;99142.94;;;14.95;100.00
37824;BME280;23667;43.246;26.576;2022-12-16T12:00:53;99139.75;;;15.21;100.00
37824;BME280;23667;43.246;26.576;2022-12-16T12:03:43;99131.25;;;15.00;100.00
37824;BME280;23667;43.246;26.576;2022-12-16T12:09:53;99128.34;;;15.05;100.00
37824;BME280;23667;43.246;26.576;2022-12-16T12:12:54;99118.63;;;15.07;100.00
37824;BME280;23667;43.246;26.576;2022-12-16T12:16:07;99129.06;;;15.40;100.00
37824;BME280;23667;43.246;26.576;2022-12-16T12:19:09;99133.44;;;15.56;100.00
37824;BME280;23667;43.246;26.576;2022-12-16T12:22:22;99147.13;;;15.78;100.00
37824;BME280;23667;43.246;26.576;2022-12-16T12:25:39;99152.84;;;15.71;100.00
37824;BME280;23667;43.246;26.576;2022-12-16T12:28:46;99150.34;;;15.52;100.00
37824;BME280;23667;43.246;26.576;2022-12-16T12:31:49;99147.53;;;15.55;100.00
37824;BME280;23667;43.246;26.576;2022-12-16T12:34:46;99153.47;;;15.58;100.00
37824;BME280;23667;43.246;26.576;2022-12-16T12:37:36;99154.34;;;15.59;100.00
37824;BME280;23667;43.246;26.576;2022-12-16T12:43:51;99147.19;;;15.61;100.00
37824;BME280;23667;43.246;26.576;2022-12-16T12:49:45;99153.41;;;15.60;100.00
37824;BME280;23667;43.246;26.576;2022-12-16T12:55:27;99146.88;;;15.35;100.00
37824;BME280;23667;43.246;26.576;2022-12-16T12:58:14;99153.16;;;15.33;100.00
37824;BME280;23667;43.246;26.576;2022-12-16T13:01:02;99153.91;;;15.51;100.00
37824;BME280;23667;43.246;26.576;2022-12-16T13:03:53;99166.38;;;15.47;100.00
37824;BME280;23667;43.246;26.576;2022-12-16T13:06:40;99174.94;;;15.51;100.00
37824;BME280;23667;43.246;26.576;2022-12-16T13:09:31;99180.13;;;15.68;100.00
37824;BME280;23667;43.246;26.576;2022-12-16T13:15:09;99193.16;;;15.54;100.00
37824;BME280;23667;43.246;26.576;2022-12-16T13:20:40;99193.28;;;15.19;100.00
37824;BME280;23667;43.246;26.576;2022-12-16T13:23:36;99187.09;;;14.87;100.00
37824;BME280;23667;43.246;26.576;2022-12-16T13:26:22;99177.41;;;14.71;100.00
37824;BME280;23667;43.246;26.576;2022-12-16T13:29:28;99181.56;;;14.58;100.00
37824;BME280;23667;43.246;26.576;2022-12-16T13:35:15;99167.50;;;15.10;100.00
37824;BME280;23667;43.246;26.576;2022-12-16T13:38:05;99170.75;;;15.31;100.00
37824;BME280;23667;43.246;26.576;2022-12-16T13:41:06;99171.38;;;15.36;100.00
37824;BME280;23667;43.246;26.576;2022-12-16T13:44:09;99168.03;;;15.64;100.00
37824;BME280;23667;43.246;26.576;2022-12-16T13:46:55;99168.50;;;15.72;100.00
37824;BME280;23667;43.246;26.576;2022-12-16T13:49:43;99168.75;;;15.67;100.00
37824;BME280;23667;43.246;26.576;2022-12-16T13:52:43;99173.00;;;15.86;100.00
37824;BME280;23667;43.246;26.576;2022-12-16T13:58:48;99177.72;;;15.63;100.00
37824;BME280;23667;43.246;26.576;2022-12-16T14:01:51;99181.88;;;15.52;100.00
37824;BME280;23667;43.246;26.576;2022-12-16T14:04:51;99189.09;;;14.99;100.00
37824;BME280;23667;43.246;26.576;2022-12-16T14:07:39;99193.63;;;14.79;100.00
37824;BME280;23667;43.246;26.576;2022-12-16T14:13:35;99204.59;;;14.53;100.00
37824;BME280;23667;43.246;26.576;2022-12-16T14:25:28;99170.53;;;15.02;100.00
37824;BME280;23667;43.246;26.576;2022-12-16T14:28:38;99176.91;;;14.98;100.00
37824;BME280;23667;43.246;26.576;2022-12-16T14:34:18;99189.44;;;14.75;100.00
37824;BME280;23667;43.246;26.576;2022-12-16T14:39:55;99188.59;;;14.57;100.00
37824;BME280;23667;43.246;26.576;2022-12-16T14:42:40;99188.28;;;14.46;100.00
37824;BME280;23667;43.246;26.576;2022-12-16T14:45:29;99191.84;;;14.63;100.00
37824;BME280;23667;43.246;26.576;2022-12-16T14:48:28;99184.19;;;14.75;100.00
37824;BME280;23667;43.246;26.576;2022-12-16T14:54:30;99181.63;;;14.91;100.00
37824;BME280;23667;43.246;26.576;2022-12-16T14:57:20;99182.13;;;14.82;100.00
37824;BME280;23667;43.246;26.576;2022-12-16T15:03:32;99180.66;;;15.25;100.00
37824;BME280;23667;43.246;26.576;2022-12-16T15:06:42;99177.38;;;15.38;100.00
37824;BME280;23667;43.246;26.576;2022-12-16T15:09:28;99191.22;;;15.08;100.00
37824;BME280;23667;43.246;26.576;2022-12-16T15:12:15;99187.59;;;14.77;100.00
37824;BME280;23667;43.246;26.576;2022-12-16T15:15:07;99187.97;;;14.70;100.00
37824;BME280;23667;43.246;26.576;2022-12-16T15:17:57;99191.16;;;14.59;100.00
37824;BME280;23667;43.246;26.576;2022-12-16T15:20:48;99198.09;;;14.60;100.00
37824;BME280;23667;43.246;26.576;2022-12-16T15:23:33;99199.63;;;14.47;100.00
37824;BME280;23667;43.246;26.576;2022-12-16T15:26:22;99199.00;;;14.42;100.00
37824;BME280;23667;43.246;26.576;2022-12-16T15:35:26;99212.44;;;14.36;100.00
37824;BME280;23667;43.246;26.576;2022-12-16T15:41:04;99207.75;;;15.10;100.00
37824;BME280;23667;43.246;26.576;2022-12-16T15:43:49;99201.88;;;15.38;100.00
37824;BME280;23667;43.246;26.576;2022-12-16T15:46:35;99201.88;;;15.38;100.00
37824;BME280;23667;43.246;26.576;2022-12-16T15:49:36;99197.13;;;15.45;100.00
37824;BME280;23667;43.246;26.576;2022-12-16T15:55:38;99191.72;;;15.48;100.00
37824;BME280;23667;43.246;26.576;2022-12-16T15:58:30;99195.13;;;15.50;100.00
37824;BME280;23667;43.246;26.576;2022-12-16T16:01:23;99189.75;;;15.52;100.00
37824;BME280;23667;43.246;26.576;2022-12-16T16:04:28;99190.34;;;15.57;100.00
37824;BME280;23667;43.246;26.576;2022-12-16T16:07:23;99180.34;;;15.63;100.00
37824;BME280;23667;43.246;26.576;2022-12-16T16:10:16;99187.06;;;15.85;100.00